sensor_id;sensor_type;location;lat;lon;timestamp;P1;durP1;ratioP1;P2;durP2;ratioP2
9904;SDS011;4991;43.566;27.820;2023-04-01T00:02:18;8.73;;;6.77;;
9904;SDS011;4991;43.566;27.820;2023-04-01T00:04:44;8.50;;;6.30;;
9904;SDS011;4991;43.566;27.820;2023-04-01T00:07:09;10.63;;;6.70;;
9904;SDS011;4991;43.566;27.820;2023-04-01T00:09:36;8.77;;;6.07;;
9904;SDS011;4991;43.566;27.820;2023-04-01T00:12:01;9.23;;;5.90;;
9904;SDS011;4991;43.566;27.820;2023-04-01T00:14:27;8.40;;;6.00;;
9904;SDS011;4991;43.566;27.820;2023-04-01T00:16:54;9.40;;;6.63;;
9904;SDS011;4991;43.566;27.820;2023-04-01T00:19:19;8.47;;;6.03;;
9904;SDS011;4991;43.566;27.820;2023-04-01T00:21:45;8.73;;;5.43;;
9904;SDS011;4991;43.566;27.820;2023-04-01T00:24:11;8.50;;;5.33;;
9904;SDS011;4991;43.566;27.820;2023-04-01T00:26:37;9.40;;;6.10;;
9904;SDS011;4991;43.566;27.820;2023-04-01T00:29:02;8.33;;;6.00;;
9904;SDS011;4991;43.566;27.820;2023-04-01T00:31:28;8.17;;;5.93;;
9904;SDS011;4991;43.566;27.820;2023-04-01T00:33:54;9.73;;;5.27;;
9904;SDS011;4991;43.566;27.820;2023-04-01T00:36:21;9.60;;;5.30;;
9904;SDS011;4991;43.566;27.820;2023-04-01T00:38:48;9.50;;;5.57;;
9904;SDS011;4991;43.566;27.820;2023-04-01T00:41:15;6.00;;;5.00;;
9904;SDS011;4991;43.566;27.820;2023-04-01T00:43:43;9.43;;;5.27;;
9904;SDS011;4991;43.566;27.820;2023-04-01T00:46:11;8.73;;;4.60;;
9904;SDS011;4991;43.566;27.820;2023-04-01T00:48:38;7.43;;;4.57;;
9904;SDS011;4991;43.566;27.820;2023-04-01T00:51:11;8.27;;;5.60;;
9904;SDS011;4991;43.566;27.820;2023-04-01T00:53:43;7.60;;;5.47;;
9904;SDS011;4991;43.566;27.820;2023-04-01T00:56:13;10.10;;;5.30;;
9904;SDS011;4991;43.566;27.820;2023-04-01T00:58:47;7.27;;;5.03;;
9904;SDS011;4991;43.566;27.820;2023-04-01T01:01:16;7.77;;;4.90;;
9904;SDS011;4991;43.566;27.820;2023-04-01T01:03:43;9.40;;;5.43;;
9904;SDS011;4991;43.566;27.820;2023-04-01T01:11:40;7.37;;;5.07;;
9904;SDS011;4991;43.566;27.820;2023-04-01T01:17:06;5.97;;;4.40;;
9904;SDS011;4991;43.566;27.820;2023-04-01T01:22:47;5.63;;;4.80;;
9904;SDS011;4991;43.566;27.820;2023-04-01T01:36:55;5.80;;;4.70;;
9904;SDS011;4991;43.566;27.820;2023-04-01T01:39:27;9.70;;;5.10;;
9904;SDS011;4991;43.566;27.820;2023-04-01T01:41:57;8.57;;;4.37;;
9904;SDS011;4991;43.566;27.820;2023-04-01T01:44:26;6.23;;;4.50;;
9904;SDS011;4991;43.566;27.820;2023-04-01T01:46:55;7.40;;;4.87;;
9904;SDS011;4991;43.566;27.820;2023-04-01T01:49:21;8.90;;;4.47;;
9904;SDS011;4991;43.566;27.820;2023-04-01T01:51:48;7.80;;;4.77;;
9904;SDS011;4991;43.566;27.820;2023-04-01T01:54:15;6.97;;;5.40;;
9904;SDS011;4991;43.566;27.820;2023-04-01T01:56:43;7.97;;;5.80;;
9904;SDS011;4991;43.566;27.820;2023-04-01T01:59:12;10.63;;;5.27;;
9904;SDS011;4991;43.566;27.820;2023-04-01T02:01:45;6.60;;;5.10;;
9904;SDS011;4991;43.566;27.820;2023-04-01T02:04:16;12.93;;;5.00;;
9904;SDS011;4991;43.566;27.820;2023-04-01T02:06:48;7.87;;;5.13;;
9904;SDS011;4991;43.566;27.820;2023-04-01T02:09:18;9.73;;;4.93;;
9904;SDS011;4991;43.566;27.820;2023-04-01T02:11:52;6.83;;;4.87;;
9904;SDS011;4991;43.566;27.820;2023-04-01T02:14:43;7.00;;;5.00;;
9904;SDS011;4991;43.566;27.820;2023-04-01T02:17:09;8.53;;;4.53;;
9904;SDS011;4991;43.566;27.820;2023-04-01T02:19:39;5.97;;;4.80;;
9904;SDS011;4991;43.566;27.820;2023-04-01T02:22:11;10.83;;;4.23;;
9904;SDS011;4991;43.566;27.820;2023-04-01T02:24:41;6.83;;;4.90;;
9904;SDS011;4991;43.566;27.820;2023-04-01T02:27:09;10.20;;;5.30;;
9904;SDS011;4991;43.566;27.820;2023-04-01T02:29:36;5.30;;;4.20;;
9904;SDS011;4991;43.566;27.820;2023-04-01T02:32:02;7.37;;;4.80;;
9904;SDS011;4991;43.566;27.820;2023-04-01T02:34:28;9.67;;;5.07;;
9904;SDS011;4991;43.566;27.820;2023-04-01T02:36:55;11.83;;;4.93;;
9904;SDS011;4991;43.566;27.820;2023-04-01T02:39:22;8.63;;;5.13;;
9904;SDS011;4991;43.566;27.820;2023-04-01T02:41:48;8.20;;;5.27;;
9904;SDS011;4991;43.566;27.820;2023-04-01T02:44:14;5.60;;;4.80;;
9904;SDS011;4991;43.566;27.820;2023-04-01T02:46:41;8.87;;;5.23;;
9904;SDS011;4991;43.566;27.820;2023-04-01T02:49:07;9.40;;;4.73;;
9904;SDS011;4991;43.566;27.820;2023-04-01T02:51:33;6.87;;;5.10;;
9904;SDS011;4991;43.566;27.820;2023-04-01T02:53:59;8.63;;;5.73;;
9904;SDS011;4991;43.566;27.820;2023-04-01T02:56:25;8.20;;;5.67;;
9904;SDS011;4991;43.566;27.820;2023-04-01T02:58:51;7.70;;;5.57;;
9904;SDS011;4991;43.566;27.820;2023-04-01T03:01:17;9.00;;;5.93;;
9904;SDS011;4991;43.566;27.820;2023-04-01T03:03:43;6.93;;;5.00;;
9904;SDS011;4991;43.566;27.820;2023-04-01T03:06:10;10.30;;;5.53;;
9904;SDS011;4991;43.566;27.820;2023-04-01T03:08:37;9.13;;;4.97;;
9904;SDS011;4991;43.566;27.820;2023-04-01T03:11:03;16.10;;;5.53;;
9904;SDS011;4991;43.566;27.820;2023-04-01T03:13:28;11.23;;;5.27;;
9904;SDS011;4991;43.566;27.820;2023-04-01T03:15:54;8.17;;;5.33;;
9904;SDS011;4991;43.566;27.820;2023-04-01T03:18:20;7.37;;;4.70;;
9904;SDS011;4991;43.566;27.820;2023-04-01T03:20:46;8.20;;;5.60;;
9904;SDS011;4991;43.566;27.820;2023-04-01T03:23:11;10.67;;;6.27;;
9904;SDS011;4991;43.566;27.820;2023-04-01T03:25:37;9.07;;;5.73;;
9904;SDS011;4991;43.566;27.820;2023-04-01T03:28:03;10.30;;;5.70;;
9904;SDS011;4991;43.566;27.820;2023-04-01T03:30:29;9.77;;;6.50;;
9904;SDS011;4991;43.566;27.820;2023-04-01T03:32:57;8.27;;;5.30;;
9904;SDS011;4991;43.566;27.820;2023-04-01T03:35:24;7.37;;;5.37;;
9904;SDS011;4991;43.566;27.820;2023-04-01T03:37:50;8.93;;;5.87;;
9904;SDS011;4991;43.566;27.820;2023-04-01T03:40:17;10.07;;;6.07;;
9904;SDS011;4991;43.566;27.820;2023-04-01T03:42:43;9.07;;;5.13;;
9904;SDS011;4991;43.566;27.820;2023-04-01T03:45:09;11.77;;;5.60;;
9904;SDS011;4991;43.566;27.820;2023-04-01T03:47:37;8.90;;;5.70;;
9904;SDS011;4991;43.566;27.820;2023-04-01T03:50:04;11.33;;;6.10;;
9904;SDS011;4991;43.566;27.820;2023-04-01T03:52:30;12.13;;;8.23;;
9904;SDS011;4991;43.566;27.820;2023-04-01T03:54:56;13.47;;;9.60;;
9904;SDS011;4991;43.566;27.820;2023-04-01T03:57:22;12.40;;;9.67;;
9904;SDS011;4991;43.566;27.820;2023-04-01T03:59:48;13.03;;;8.83;;
9904;SDS011;4991;43.566;27.820;2023-04-01T04:02:13;11.60;;;8.60;;
9904;SDS011;4991;43.566;27.820;2023-04-01T04:04:39;15.63;;;10.50;;
9904;SDS011;4991;43.566;27.820;2023-04-01T04:07:05;14.23;;;9.97;;
9904;SDS011;4991;43.566;27.820;2023-04-01T04:09:31;19.27;;;8.83;;
9904;SDS011;4991;43.566;27.820;2023-04-01T04:11:57;11.23;;;7.93;;
9904;SDS011;4991;43.566;27.820;2023-04-01T04:14:22;15.53;;;9.27;;
9904;SDS011;4991;43.566;27.820;2023-04-01T04:16:48;19.67;;;9.90;;
9904;SDS011;4991;43.566;27.820;2023-04-01T04:19:14;20.77;;;10.77;;
9904;SDS011;4991;43.566;27.820;2023-04-01T04:21:40;15.50;;;11.67;;
9904;SDS011;4991;43.566;27.820;2023-04-01T04:24:07;14.80;;;8.07;;
9904;SDS011;4991;43.566;27.820;2023-04-01T04:26:33;14.50;;;9.47;;
9904;SDS011;4991;43.566;27.820;2023-04-01T04:28:59;14.33;;;9.37;;
9904;SDS011;4991;43.566;27.820;2023-04-01T04:31:25;16.27;;;9.93;;
9904;SDS011;4991;43.566;27.820;2023-04-01T04:33:51;18.67;;;10.33;;
9904;SDS011;4991;43.566;27.820;2023-04-01T04:36:18;14.33;;;9.23;;
9904;SDS011;4991;43.566;27.820;2023-04-01T04:38:44;13.67;;;8.80;;
9904;SDS011;4991;43.566;27.820;2023-04-01T04:41:11;15.43;;;9.53;;
9904;SDS011;4991;43.566;27.820;2023-04-01T04:43:41;10.73;;;7.17;;
9904;SDS011;4991;43.566;27.820;2023-04-01T04:46:08;11.33;;;6.87;;
9904;SDS011;4991;43.566;27.820;2023-04-01T04:48:34;12.87;;;7.50;;
9904;SDS011;4991;43.566;27.820;2023-04-01T04:51:00;12.53;;;7.97;;
9904;SDS011;4991;43.566;27.820;2023-04-01T04:53:26;10.97;;;7.50;;
9904;SDS011;4991;43.566;27.820;2023-04-01T04:55:52;10.00;;;7.13;;
9904;SDS011;4991;43.566;27.820;2023-04-01T04:58:18;11.07;;;7.50;;
9904;SDS011;4991;43.566;27.820;2023-04-01T05:00:45;12.60;;;7.07;;
9904;SDS011;4991;43.566;27.820;2023-04-01T05:03:11;15.50;;;7.93;;
9904;SDS011;4991;43.566;27.820;2023-04-01T05:05:38;9.23;;;6.17;;
9904;SDS011;4991;43.566;27.820;2023-04-01T05:08:05;7.63;;;5.03;;
9904;SDS011;4991;43.566;27.820;2023-04-01T05:10:31;10.27;;;5.50;;
9904;SDS011;4991;43.566;27.820;2023-04-01T05:12:56;7.20;;;4.93;;
9904;SDS011;4991;43.566;27.820;2023-04-01T05:15:22;7.43;;;4.97;;
9904;SDS011;4991;43.566;27.820;2023-04-01T05:17:49;6.93;;;5.10;;
9904;SDS011;4991;43.566;27.820;2023-04-01T05:20:15;9.90;;;5.70;;
9904;SDS011;4991;43.566;27.820;2023-04-01T05:22:42;9.23;;;4.50;;
9904;SDS011;4991;43.566;27.820;2023-04-01T05:25:08;10.83;;;6.17;;
9904;SDS011;4991;43.566;27.820;2023-04-01T05:27:34;8.10;;;5.17;;
9904;SDS011;4991;43.566;27.820;2023-04-01T05:30:00;9.83;;;5.50;;
9904;SDS011;4991;43.566;27.820;2023-04-01T05:32:25;7.83;;;5.00;;
9904;SDS011;4991;43.566;27.820;2023-04-01T05:34:51;11.67;;;5.37;;
9904;SDS011;4991;43.566;27.820;2023-04-01T05:37:17;9.87;;;4.50;;
9904;SDS011;4991;43.566;27.820;2023-04-01T05:39:43;4.83;;;3.90;;
9904;SDS011;4991;43.566;27.820;2023-04-01T05:42:09;5.57;;;4.17;;
9904;SDS011;4991;43.566;27.820;2023-04-01T05:44:35;6.33;;;4.00;;
9904;SDS011;4991;43.566;27.820;2023-04-01T05:47:01;6.67;;;3.73;;
9904;SDS011;4991;43.566;27.820;2023-04-01T05:49:28;7.90;;;4.13;;
9904;SDS011;4991;43.566;27.820;2023-04-01T05:51:54;4.57;;;3.80;;
9904;SDS011;4991;43.566;27.820;2023-04-01T05:54:20;8.33;;;4.27;;
9904;SDS011;4991;43.566;27.820;2023-04-01T05:56:45;6.07;;;3.90;;
9904;SDS011;4991;43.566;27.820;2023-04-01T05:59:11;9.77;;;4.00;;
9904;SDS011;4991;43.566;27.820;2023-04-01T06:01:38;7.83;;;5.50;;
9904;SDS011;4991;43.566;27.820;2023-04-01T06:04:03;9.80;;;5.53;;
9904;SDS011;4991;43.566;27.820;2023-04-01T06:06:30;12.23;;;7.80;;
9904;SDS011;4991;43.566;27.820;2023-04-01T06:08:58;10.43;;;5.33;;
9904;SDS011;4991;43.566;27.820;2023-04-01T06:14:27;10.10;;;4.10;;
9904;SDS011;4991;43.566;27.820;2023-04-01T06:19:51;12.60;;;8.17;;
9904;SDS011;4991;43.566;27.820;2023-04-01T06:30:44;7.97;;;3.97;;
9904;SDS011;4991;43.566;27.820;2023-04-01T06:44:51;11.63;;;8.23;;
9904;SDS011;4991;43.566;27.820;2023-04-01T06:47:35;5.10;;;3.80;;
9904;SDS011;4991;43.566;27.820;2023-04-01T06:55:17;7.90;;;3.87;;
9904;SDS011;4991;43.566;27.820;2023-04-01T06:57:49;10.03;;;4.60;;
9904;SDS011;4991;43.566;27.820;2023-04-01T07:00:36;11.63;;;3.77;;
9904;SDS011;4991;43.566;27.820;2023-04-01T07:03:06;8.60;;;4.30;;
9904;SDS011;4991;43.566;27.820;2023-04-01T07:05:43;6.53;;;4.13;;
9904;SDS011;4991;43.566;27.820;2023-04-01T07:08:10;12.67;;;6.10;;
9904;SDS011;4991;43.566;27.820;2023-04-01T07:10:54;8.90;;;4.87;;
9904;SDS011;4991;43.566;27.820;2023-04-01T07:13:32;16.63;;;5.60;;
9904;SDS011;4991;43.566;27.820;2023-04-01T07:24:22;5.67;;;3.50;;
9904;SDS011;4991;43.566;27.820;2023-04-01T07:26:55;6.67;;;3.40;;
9904;SDS011;4991;43.566;27.820;2023-04-01T07:29:22;8.00;;;3.00;;
9904;SDS011;4991;43.566;27.820;2023-04-01T07:31:52;4.93;;;3.43;;
9904;SDS011;4991;43.566;27.820;2023-04-01T07:34:35;5.70;;;3.57;;
9904;SDS011;4991;43.566;27.820;2023-04-01T08:01:47;10.43;;;3.63;;
9904;SDS011;4991;43.566;27.820;2023-04-01T08:04:37;12.63;;;3.50;;
9904;SDS011;4991;43.566;27.820;2023-04-01T08:15:23;4.97;;;2.50;;
9904;SDS011;4991;43.566;27.820;2023-04-01T08:25:54;7.17;;;3.50;;
9904;SDS011;4991;43.566;27.820;2023-04-01T08:31:04;6.60;;;2.70;;
9904;SDS011;4991;43.566;27.820;2023-04-01T08:33:34;7.70;;;2.93;;
9904;SDS011;4991;43.566;27.820;2023-04-01T08:38:53;8.27;;;4.70;;
9904;SDS011;4991;43.566;27.820;2023-04-01T08:44:10;4.23;;;2.67;;
9904;SDS011;4991;43.566;27.820;2023-04-01T08:49:25;4.33;;;2.80;;
9904;SDS011;4991;43.566;27.820;2023-04-01T09:00:00;7.17;;;3.40;;
9904;SDS011;4991;43.566;27.820;2023-04-01T09:22:15;3.73;;;3.20;;
9904;SDS011;4991;43.566;27.820;2023-04-01T09:41:05;6.13;;;3.60;;
9904;SDS011;4991;43.566;27.820;2023-04-01T09:43:47;10.70;;;3.10;;
9904;SDS011;4991;43.566;27.820;2023-04-01T09:46:23;5.73;;;2.77;;
9904;SDS011;4991;43.566;27.820;2023-04-01T09:49:19;5.33;;;2.73;;
9904;SDS011;4991;43.566;27.820;2023-04-01T10:50:42;7.90;;;3.50;;
9904;SDS011;4991;43.566;27.820;2023-04-01T10:59:33;7.37;;;3.23;;
9904;SDS011;4991;43.566;27.820;2023-04-01T11:19:25;21.83;;;5.50;;
9904;SDS011;4991;43.566;27.820;2023-04-01T11:36:34;10.47;;;3.47;;
9904;SDS011;4991;43.566;27.820;2023-04-01T11:38:40;7.70;;;3.10;;
9904;SDS011;4991;43.566;27.820;2023-04-01T11:41:46;9.57;;;3.20;;
9904;SDS011;4991;43.566;27.820;2023-04-01T12:11:21;7.07;;;3.03;;
9904;SDS011;4991;43.566;27.820;2023-04-01T12:19:41;5.40;;;3.13;;
9904;SDS011;4991;43.566;27.820;2023-04-01T12:56:02;7.07;;;2.30;;
9904;SDS011;4991;43.566;27.820;2023-04-01T13:10:02;5.67;;;3.03;;
9904;SDS011;4991;43.566;27.820;2023-04-01T13:18:00;5.20;;;2.87;;
9904;SDS011;4991;43.566;27.820;2023-04-01T13:26:24;14.33;;;3.63;;
9904;SDS011;4991;43.566;27.820;2023-04-01T13:28:53;10.57;;;4.27;;
9904;SDS011;4991;43.566;27.820;2023-04-01T13:34:22;3.57;;;2.73;;
9904;SDS011;4991;43.566;27.820;2023-04-01T13:42:53;6.17;;;3.90;;
9904;SDS011;4991;43.566;27.820;2023-04-01T13:45:23;10.50;;;4.20;;
9904;SDS011;4991;43.566;27.820;2023-04-01T13:50:58;9.23;;;4.15;;
9904;SDS011;4991;43.566;27.820;2023-04-01T14:16:47;6.13;;;3.88;;
9904;SDS011;4991;43.566;27.820;2023-04-01T14:22:34;10.30;;;4.33;;
9904;SDS011;4991;43.566;27.820;2023-04-01T14:25:23;6.87;;;3.77;;
9904;SDS011;4991;43.566;27.820;2023-04-01T14:34:19;6.97;;;3.30;;
9904;SDS011;4991;43.566;27.820;2023-04-01T14:45:07;7.60;;;3.77;;
9904;SDS011;4991;43.566;27.820;2023-04-01T14:48:27;11.93;;;5.33;;
9904;SDS011;4991;43.566;27.820;2023-04-01T14:51:03;9.30;;;5.57;;
9904;SDS011;4991;43.566;27.820;2023-04-01T14:53:36;7.67;;;4.30;;
9904;SDS011;4991;43.566;27.820;2023-04-01T14:56:10;11.33;;;6.53;;
9904;SDS011;4991;43.566;27.820;2023-04-01T14:58:57;13.63;;;6.47;;
9904;SDS011;4991;43.566;27.820;2023-04-01T15:01:35;15.30;;;7.47;;
9904;SDS011;4991;43.566;27.820;2023-04-01T15:12:54;30.60;;;10.68;;
9904;SDS011;4991;43.566;27.820;2023-04-01T15:18:35;21.27;;;7.40;;
9904;SDS011;4991;43.566;27.820;2023-04-01T15:29:22;23.20;;;8.05;;
9904;SDS011;4991;43.566;27.820;2023-04-01T15:31:54;21.93;;;9.07;;
9904;SDS011;4991;43.566;27.820;2023-04-01T15:37:59;12.83;;;7.00;;
9904;SDS011;4991;43.566;27.820;2023-04-01T15:45:58;20.33;;;9.20;;
9904;SDS011;4991;43.566;27.820;2023-04-01T16:05:25;19.30;;;9.93;;
9904;SDS011;4991;43.566;27.820;2023-04-01T16:07:57;16.60;;;9.03;;
9904;SDS011;4991;43.566;27.820;2023-04-01T16:18:40;18.77;;;7.53;;
9904;SDS011;4991;43.566;27.820;2023-04-01T16:43:49;15.67;;;6.10;;
9904;SDS011;4991;43.566;27.820;2023-04-01T16:46:26;18.63;;;6.80;;
9904;SDS011;4991;43.566;27.820;2023-04-01T16:57:27;15.57;;;7.10;;
9904;SDS011;4991;43.566;27.820;2023-04-01T17:05:35;22.40;;;7.10;;
9904;SDS011;4991;43.566;27.820;2023-04-01T17:10:56;16.50;;;6.13;;
9904;SDS011;4991;43.566;27.820;2023-04-01T17:13:33;15.80;;;6.53;;
9904;SDS011;4991;43.566;27.820;2023-04-01T17:16:07;13.17;;;6.00;;
9904;SDS011;4991;43.566;27.820;2023-04-01T17:29:24;17.07;;;6.77;;
9904;SDS011;4991;43.566;27.820;2023-04-01T17:32:19;17.40;;;6.37;;
9904;SDS011;4991;43.566;27.820;2023-04-01T17:40:24;17.60;;;6.50;;
9904;SDS011;4991;43.566;27.820;2023-04-01T17:43:08;17.00;;;6.83;;
9904;SDS011;4991;43.566;27.820;2023-04-01T17:45:42;20.00;;;8.67;;
9904;SDS011;4991;43.566;27.820;2023-04-01T17:58:38;20.33;;;9.97;;
9904;SDS011;4991;43.566;27.820;2023-04-01T18:03:55;20.93;;;10.90;;
9904;SDS011;4991;43.566;27.820;2023-04-01T18:12:37;13.77;;;7.73;;
9904;SDS011;4991;43.566;27.820;2023-04-01T18:23:46;0.10;;;0.10;;
9904;SDS011;4991;43.566;27.820;2023-04-01T18:26:21;0.20;;;0.20;;
9904;SDS011;4991;43.566;27.820;2023-04-01T18:31:55;0.20;;;0.20;;
9904;SDS011;4991;43.566;27.820;2023-04-01T18:37:39;0.20;;;0.20;;
9904;SDS011;4991;43.566;27.820;2023-04-01T18:40:19;0.17;;;0.17;;
9904;SDS011;4991;43.566;27.820;2023-04-01T18:46:07;0.10;;;0.10;;
9904;SDS011;4991;43.566;27.820;2023-04-01T18:48:57;0.20;;;0.20;;
9904;SDS011;4991;43.566;27.820;2023-04-01T18:51:36;0.10;;;0.10;;
9904;SDS011;4991;43.566;27.820;2023-04-01T18:54:13;0.10;;;0.10;;
9904;SDS011;4991;43.566;27.820;2023-04-01T18:56:48;0.10;;;0.10;;
9904;SDS011;4991;43.566;27.820;2023-04-01T18:59:19;0.10;;;0.10;;
9904;SDS011;4991;43.566;27.820;2023-04-01T19:27:03;0.10;;;0.10;;
9904;SDS011;4991;43.566;27.820;2023-04-01T19:29:13;0.10;;;0.10;;
9904;SDS011;4991;43.566;27.820;2023-04-01T19:31:58;0.10;;;0.10;;
9904;SDS011;4991;43.566;27.820;2023-04-01T19:34:48;0.20;;;0.20;;
9904;SDS011;4991;43.566;27.820;2023-04-01T19:42:59;0.20;;;0.20;;
9904;SDS011;4991;43.566;27.820;2023-04-01T19:53:34;0.17;;;0.17;;
9904;SDS011;4991;43.566;27.820;2023-04-01T19:56:19;0.20;;;0.20;;
9904;SDS011;4991;43.566;27.820;2023-04-01T20:07:00;0.10;;;0.10;;
9904;SDS011;4991;43.566;27.820;2023-04-01T20:15:22;0.13;;;0.13;;
9904;SDS011;4991;43.566;27.820;2023-04-01T20:18:15;0.20;;;0.20;;
9904;SDS011;4991;43.566;27.820;2023-04-01T20:20:53;0.20;;;0.20;;
9904;SDS011;4991;43.566;27.820;2023-04-01T20:23:26;0.20;;;0.20;;
9904;SDS011;4991;43.566;27.820;2023-04-01T20:26:06;0.10;;;0.10;;
9904;SDS011;4991;43.566;27.820;2023-04-01T20:28:42;1.70;;;1.70;;
9904;SDS011;4991;43.566;27.820;2023-04-01T20:33:58;0.20;;;0.20;;
9904;SDS011;4991;43.566;27.820;2023-04-01T20:47:15;0.10;;;0.10;;
9904;SDS011;4991;43.566;27.820;2023-04-01T20:52:54;0.20;;;0.20;;
9904;SDS011;4991;43.566;27.820;2023-04-01T21:03:38;0.20;;;0.20;;
9904;SDS011;4991;43.566;27.820;2023-04-01T21:08:59;0.10;;;0.10;;
9904;SDS011;4991;43.566;27.820;2023-04-01T21:34:41;0.30;;;0.30;;
9904;SDS011;4991;43.566;27.820;2023-04-01T21:40:14;0.20;;;0.20;;
9904;SDS011;4991;43.566;27.820;2023-04-01T21:54:56;0.10;;;0.10;;
9904;SDS011;4991;43.566;27.820;2023-04-01T22:03:39;0.20;;;0.20;;
9904;SDS011;4991;43.566;27.820;2023-04-01T22:06:44;0.20;;;0.20;;
9904;SDS011;4991;43.566;27.820;2023-04-01T22:09:39;0.00;;;0.00;;
9904;SDS011;4991;43.566;27.820;2023-04-01T22:12:23;0.20;;;0.20;;
9904;SDS011;4991;43.566;27.820;2023-04-01T22:15:19;0.10;;;0.10;;
9904;SDS011;4991;43.566;27.820;2023-04-01T22:18:37;0.10;;;0.10;;
9904;SDS011;4991;43.566;27.820;2023-04-01T22:20:58;0.20;;;0.20;;
9904;SDS011;4991;43.566;27.820;2023-04-01T22:31:45;0.10;;;0.10;;
9904;SDS011;4991;43.566;27.820;2023-04-01T22:34:22;0.10;;;0.10;;
9904;SDS011;4991;43.566;27.820;2023-04-01T22:42:58;0.10;;;0.10;;
9904;SDS011;4991;43.566;27.820;2023-04-01T22:53:38;0.20;;;0.20;;
9904;SDS011;4991;43.566;27.820;2023-04-01T22:56:11;0.20;;;0.20;;
9904;SDS011;4991;43.566;27.820;2023-04-01T22:58:42;0.20;;;0.20;;
9904;SDS011;4991;43.566;27.820;2023-04-01T23:01:16;0.20;;;0.20;;
9904;SDS011;4991;43.566;27.820;2023-04-01T23:03:48;0.10;;;0.10;;
9904;SDS011;4991;43.566;27.820;2023-04-01T23:06:24;0.10;;;0.10;;
9904;SDS011;4991;43.566;27.820;2023-04-01T23:09:00;0.20;;;0.20;;
9904;SDS011;4991;43.566;27.820;2023-04-01T23:11:30;0.10;;;0.10;;
9904;SDS011;4991;43.566;27.820;2023-04-01T23:16:54;0.10;;;0.10;;
9904;SDS011;4991;43.566;27.820;2023-04-01T23:22:21;0.10;;;0.10;;
9904;SDS011;4991;43.566;27.820;2023-04-01T23:24:55;0.20;;;0.20;;
9904;SDS011;4991;43.566;27.820;2023-04-01T23:27:51;0.10;;;0.10;;
9904;SDS011;4991;43.566;27.820;2023-04-01T23:38:33;0.10;;;0.10;;
9904;SDS011;4991;43.566;27.820;2023-04-01T23:41:02;0.10;;;0.10;;
9904;SDS011;4991;43.566;27.820;2023-04-01T23:43:39;0.10;;;0.10;;
9904;SDS011;4991;43.566;27.820;2023-04-01T23:46:08;0.10;;;0.10;;
9904;SDS011;4991;43.566;27.820;2023-04-01T23:48:37;0.17;;;0.17;;
9904;SDS011;4991;43.566;27.820;2023-04-01T23:51:46;0.20;;;0.20;;
9904;SDS011;4991;43.566;27.820;2023-04-01T23:54:15;0.20;;;0.20;;
9904;SDS011;4991;43.566;27.820;2023-04-01T23:56:45;0.10;;;0.10;;
9904;SDS011;4991;43.566;27.820;2023-04-01T23:59:30;0.10;;;0.10;;
